Atyrau, Kazakhstan
Current Conditions -  °F | °C
As of 6:00 AM on Thursday 23 Oct 2014 (Local Time) from UATG Reporting Station
Haze Haze  
Wind Chill: 42°   Ceiling: 9600
Heat Index: 45°   Visibility: 3mi
Dew Point: 45°   Wind: 4mph
Humidity: 100%   Direction: 20°NNE
Pressure: 29.94"   Gusts: NA
Location:  47.12°N, 51.88°E
Report Text: UATG 230200Z 02002MPS 5000 BR SCT010 BKN096 07/07 Q1014 R32/19//67 NOSIG RMK QFE762/1016
Loading
Personal Weather Stations






























Interactive Weather Map
Tropical Storm Tracking
New forecast layout! Learn more

10-Day Weather Forecast

Advertisements
Track Severe Weather on mobile